sensor_id;sensor_type;location;lat;lon;timestamp;temperature;humidity
20416;DHT22;10367;52.202;5.996;2023-03-16T00:01:30;3.20;99.90
20416;DHT22;10367;52.202;5.996;2023-03-16T00:04:01;3.30;99.90
20416;DHT22;10367;52.202;5.996;2023-03-16T00:06:33;3.30;99.90
20416;DHT22;10367;52.202;5.996;2023-03-16T00:09:06;3.30;99.90
20416;DHT22;10367;52.202;5.996;2023-03-16T00:11:40;3.30;99.90
20416;DHT22;10367;52.202;5.996;2023-03-16T00:14:11;3.30;99.90
20416;DHT22;10367;52.202;5.996;2023-03-16T00:16:49;3.30;99.90
20416;DHT22;10367;52.202;5.996;2023-03-16T00:19:24;3.40;99.90
20416;DHT22;10367;52.202;5.996;2023-03-16T00:22:11;3.40;99.90
20416;DHT22;10367;52.202;5.996;2023-03-16T00:24:42;3.50;99.90
20416;DHT22;10367;52.202;5.996;2023-03-16T00:27:12;3.40;99.90
20416;DHT22;10367;52.202;5.996;2023-03-16T00:29:44;3.50;99.90
20416;DHT22;10367;52.202;5.996;2023-03-16T00:32:17;3.50;99.90
20416;DHT22;10367;52.202;5.996;2023-03-16T00:34:50;3.50;99.90
20416;DHT22;10367;52.202;5.996;2023-03-16T00:37:24;3.60;99.90
20416;DHT22;10367;52.202;5.996;2023-03-16T00:40:05;3.60;99.90
20416;DHT22;10367;52.202;5.996;2023-03-16T00:42:38;3.60;99.90
20416;DHT22;10367;52.202;5.996;2023-03-16T00:45:11;3.60;99.90
20416;DHT22;10367;52.202;5.996;2023-03-16T00:47:49;3.70;99.90
20416;DHT22;10367;52.202;5.996;2023-03-16T00:50:29;3.70;99.90
20416;DHT22;10367;52.202;5.996;2023-03-16T00:52:59;3.70;99.90
20416;DHT22;10367;52.202;5.996;2023-03-16T00:55:32;3.70;99.90
20416;DHT22;10367;52.202;5.996;2023-03-16T00:58:19;3.80;99.90
20416;DHT22;10367;52.202;5.996;2023-03-16T01:00:58;3.70;99.90
20416;DHT22;10367;52.202;5.996;2023-03-16T01:03:29;3.70;99.90
20416;DHT22;10367;52.202;5.996;2023-03-16T01:06:09;3.70;99.90
20416;DHT22;10367;52.202;5.996;2023-03-16T01:08:48;3.70;99.90
20416;DHT22;10367;52.202;5.996;2023-03-16T01:11:23;3.70;99.90
20416;DHT22;10367;52.202;5.996;2023-03-16T01:14:05;3.70;99.90
20416;DHT22;10367;52.202;5.996;2023-03-16T01:16:40;3.70;99.90
20416;DHT22;10367;52.202;5.996;2023-03-16T01:19:23;3.70;99.90
20416;DHT22;10367;52.202;5.996;2023-03-16T01:22:07;3.70;99.90
20416;DHT22;10367;52.202;5.996;2023-03-16T01:24:39;3.70;99.90
20416;DHT22;10367;52.202;5.996;2023-03-16T01:27:11;3.70;99.90
20416;DHT22;10367;52.202;5.996;2023-03-16T01:29:42;3.70;99.90
20416;DHT22;10367;52.202;5.996;2023-03-16T01:32:13;3.70;99.90
20416;DHT22;10367;52.202;5.996;2023-03-16T01:34:52;3.70;99.90
20416;DHT22;10367;52.202;5.996;2023-03-16T01:37:24;3.70;99.90
20416;DHT22;10367;52.202;5.996;2023-03-16T01:40:07;3.70;99.90
20416;DHT22;10367;52.202;5.996;2023-03-16T01:42:46;3.60;99.90
20416;DHT22;10367;52.202;5.996;2023-03-16T01:48:32;3.60;99.90
20416;DHT22;10367;52.202;5.996;2023-03-16T01:51:04;3.60;99.90
20416;DHT22;10367;52.202;5.996;2023-03-16T01:53:36;3.60;99.90
20416;DHT22;10367;52.202;5.996;2023-03-16T01:56:14;3.60;99.90
20416;DHT22;10367;52.202;5.996;2023-03-16T01:58:55;3.60;99.90
20416;DHT22;10367;52.202;5.996;2023-03-16T02:01:32;3.60;99.90
20416;DHT22;10367;52.202;5.996;2023-03-16T02:04:19;3.60;99.90
20416;DHT22;10367;52.202;5.996;2023-03-16T02:06:54;3.60;99.90
20416;DHT22;10367;52.202;5.996;2023-03-16T02:09:27;3.60;99.90
20416;DHT22;10367;52.202;5.996;2023-03-16T02:12:00;3.60;99.90
20416;DHT22;10367;52.202;5.996;2023-03-16T02:14:38;3.60;99.90
20416;DHT22;10367;52.202;5.996;2023-03-16T02:17:10;3.60;99.90
20416;DHT22;10367;52.202;5.996;2023-03-16T02:19:48;3.60;99.90
20416;DHT22;10367;52.202;5.996;2023-03-16T02:22:27;3.60;99.90
20416;DHT22;10367;52.202;5.996;2023-03-16T02:24:59;3.60;99.90
20416;DHT22;10367;52.202;5.996;2023-03-16T02:27:36;3.70;99.90
20416;DHT22;10367;52.202;5.996;2023-03-16T02:30:15;3.70;99.90
20416;DHT22;10367;52.202;5.996;2023-03-16T02:32:56;3.70;99.90
20416;DHT22;10367;52.202;5.996;2023-03-16T02:35:35;3.80;99.90
20416;DHT22;10367;52.202;5.996;2023-03-16T02:38:07;3.80;99.90
20416;DHT22;10367;52.202;5.996;2023-03-16T02:40:37;3.90;99.90
20416;DHT22;10367;52.202;5.996;2023-03-16T02:43:12;3.90;99.90
20416;DHT22;10367;52.202;5.996;2023-03-16T02:45:54;3.90;99.90
20416;DHT22;10367;52.202;5.996;2023-03-16T02:48:31;3.90;99.90
20416;DHT22;10367;52.202;5.996;2023-03-16T02:51:06;4.00;99.90
20416;DHT22;10367;52.202;5.996;2023-03-16T02:53:37;3.90;99.90
20416;DHT22;10367;52.202;5.996;2023-03-16T02:56:07;4.00;99.90
20416;DHT22;10367;52.202;5.996;2023-03-16T02:58:37;3.90;99.90
20416;DHT22;10367;52.202;5.996;2023-03-16T03:01:21;3.90;99.90
20416;DHT22;10367;52.202;5.996;2023-03-16T03:03:50;3.90;99.90
20416;DHT22;10367;52.202;5.996;2023-03-16T03:06:25;3.90;99.90
20416;DHT22;10367;52.202;5.996;2023-03-16T03:08:58;3.90;99.90
20416;DHT22;10367;52.202;5.996;2023-03-16T03:11:32;4.00;99.90
20416;DHT22;10367;52.202;5.996;2023-03-16T03:14:07;3.90;99.90
20416;DHT22;10367;52.202;5.996;2023-03-16T03:16:40;4.00;99.90
20416;DHT22;10367;52.202;5.996;2023-03-16T03:19:13;4.00;99.90
20416;DHT22;10367;52.202;5.996;2023-03-16T03:21:52;4.00;99.90
20416;DHT22;10367;52.202;5.996;2023-03-16T03:24:30;4.00;99.90
20416;DHT22;10367;52.202;5.996;2023-03-16T03:27:06;4.00;99.90
20416;DHT22;10367;52.202;5.996;2023-03-16T03:29:39;4.00;99.90
20416;DHT22;10367;52.202;5.996;2023-03-16T03:32:21;4.00;99.90
20416;DHT22;10367;52.202;5.996;2023-03-16T03:34:57;4.00;99.90
20416;DHT22;10367;52.202;5.996;2023-03-16T03:37:27;4.00;99.90
20416;DHT22;10367;52.202;5.996;2023-03-16T03:39:57;4.00;99.90
20416;DHT22;10367;52.202;5.996;2023-03-16T03:42:41;4.00;99.90
20416;DHT22;10367;52.202;5.996;2023-03-16T03:45:19;4.00;99.90
20416;DHT22;10367;52.202;5.996;2023-03-16T03:47:58;4.00;99.90
20416;DHT22;10367;52.202;5.996;2023-03-16T03:50:44;4.00;99.90
20416;DHT22;10367;52.202;5.996;2023-03-16T03:53:19;4.00;99.90
20416;DHT22;10367;52.202;5.996;2023-03-16T03:55:52;4.00;99.90
20416;DHT22;10367;52.202;5.996;2023-03-16T03:58:32;4.00;99.90
20416;DHT22;10367;52.202;5.996;2023-03-16T04:01:16;4.00;99.90
20416;DHT22;10367;52.202;5.996;2023-03-16T04:03:48;4.00;99.90
20416;DHT22;10367;52.202;5.996;2023-03-16T04:06:18;4.00;99.90
20416;DHT22;10367;52.202;5.996;2023-03-16T04:08:54;4.00;99.90
20416;DHT22;10367;52.202;5.996;2023-03-16T04:11:33;4.10;99.90
20416;DHT22;10367;52.202;5.996;2023-03-16T04:14:09;4.00;99.90
20416;DHT22;10367;52.202;5.996;2023-03-16T04:16:46;4.10;99.90
20416;DHT22;10367;52.202;5.996;2023-03-16T04:19:20;4.00;99.90
20416;DHT22;10367;52.202;5.996;2023-03-16T04:22:07;4.00;99.90
20416;DHT22;10367;52.202;5.996;2023-03-16T04:24:40;4.00;99.90
20416;DHT22;10367;52.202;5.996;2023-03-16T04:27:14;3.90;99.90
20416;DHT22;10367;52.202;5.996;2023-03-16T04:29:55;3.90;99.90
20416;DHT22;10367;52.202;5.996;2023-03-16T04:35:40;3.80;99.90
20416;DHT22;10367;52.202;5.996;2023-03-16T04:38:14;3.80;99.90
20416;DHT22;10367;52.202;5.996;2023-03-16T04:40:45;3.90;99.90
20416;DHT22;10367;52.202;5.996;2023-03-16T04:43:33;3.90;99.90
20416;DHT22;10367;52.202;5.996;2023-03-16T04:46:27;3.90;99.90
20416;DHT22;10367;52.202;5.996;2023-03-16T04:49:11;3.90;99.90
20416;DHT22;10367;52.202;5.996;2023-03-16T04:51:46;3.90;99.90
20416;DHT22;10367;52.202;5.996;2023-03-16T04:54:38;3.90;99.90
20416;DHT22;10367;52.202;5.996;2023-03-16T04:57:22;3.90;99.90
20416;DHT22;10367;52.202;5.996;2023-03-16T05:00:14;3.90;99.90
20416;DHT22;10367;52.202;5.996;2023-03-16T05:02:50;3.80;99.90
20416;DHT22;10367;52.202;5.996;2023-03-16T05:05:34;3.70;99.90
20416;DHT22;10367;52.202;5.996;2023-03-16T05:10:59;3.70;99.90
20416;DHT22;10367;52.202;5.996;2023-03-16T05:13:40;3.70;99.90
20416;DHT22;10367;52.202;5.996;2023-03-16T05:16:14;3.60;99.90
20416;DHT22;10367;52.202;5.996;2023-03-16T05:18:58;3.60;99.90
20416;DHT22;10367;52.202;5.996;2023-03-16T05:21:39;3.60;99.90
20416;DHT22;10367;52.202;5.996;2023-03-16T05:24:30;3.60;99.90
20416;DHT22;10367;52.202;5.996;2023-03-16T05:27:10;3.60;99.90
20416;DHT22;10367;52.202;5.996;2023-03-16T05:29:49;3.60;99.90
20416;DHT22;10367;52.202;5.996;2023-03-16T05:32:32;3.50;99.90
20416;DHT22;10367;52.202;5.996;2023-03-16T05:35:09;3.50;99.90
20416;DHT22;10367;52.202;5.996;2023-03-16T05:37:53;3.50;99.90
20416;DHT22;10367;52.202;5.996;2023-03-16T05:40:41;3.60;99.90
20416;DHT22;10367;52.202;5.996;2023-03-16T05:43:28;3.70;99.90
20416;DHT22;10367;52.202;5.996;2023-03-16T05:45:59;3.80;99.90
20416;DHT22;10367;52.202;5.996;2023-03-16T05:48:31;3.80;99.90
20416;DHT22;10367;52.202;5.996;2023-03-16T05:51:04;3.80;99.90
20416;DHT22;10367;52.202;5.996;2023-03-16T05:53:37;3.90;99.90
20416;DHT22;10367;52.202;5.996;2023-03-16T05:56:12;3.90;99.90
20416;DHT22;10367;52.202;5.996;2023-03-16T05:58:43;3.90;99.90
20416;DHT22;10367;52.202;5.996;2023-03-16T06:01:17;4.00;99.90
20416;DHT22;10367;52.202;5.996;2023-03-16T06:03:55;4.00;99.90
20416;DHT22;10367;52.202;5.996;2023-03-16T06:06:32;4.00;99.90
20416;DHT22;10367;52.202;5.996;2023-03-16T06:09:05;4.10;99.90
20416;DHT22;10367;52.202;5.996;2023-03-16T06:11:47;4.10;99.90
20416;DHT22;10367;52.202;5.996;2023-03-16T06:14:19;4.10;99.90
20416;DHT22;10367;52.202;5.996;2023-03-16T06:16:53;4.20;99.90
20416;DHT22;10367;52.202;5.996;2023-03-16T06:19:33;4.20;99.90
20416;DHT22;10367;52.202;5.996;2023-03-16T06:22:23;4.30;99.90
20416;DHT22;10367;52.202;5.996;2023-03-16T06:28:16;4.40;99.90
20416;DHT22;10367;52.202;5.996;2023-03-16T06:30:55;4.40;99.90
20416;DHT22;10367;52.202;5.996;2023-03-16T06:33:25;4.50;99.90
20416;DHT22;10367;52.202;5.996;2023-03-16T06:36:17;4.50;99.90
20416;DHT22;10367;52.202;5.996;2023-03-16T06:38:47;4.50;99.90
20416;DHT22;10367;52.202;5.996;2023-03-16T06:41:31;4.50;99.90
20416;DHT22;10367;52.202;5.996;2023-03-16T06:44:16;4.50;99.90
20416;DHT22;10367;52.202;5.996;2023-03-16T06:46:56;4.50;99.90
20416;DHT22;10367;52.202;5.996;2023-03-16T06:49:37;4.60;99.90
20416;DHT22;10367;52.202;5.996;2023-03-16T06:52:26;4.60;99.90
20416;DHT22;10367;52.202;5.996;2023-03-16T06:54:57;4.60;99.90
20416;DHT22;10367;52.202;5.996;2023-03-16T06:57:29;4.60;99.90
20416;DHT22;10367;52.202;5.996;2023-03-16T07:00:09;4.70;99.90
20416;DHT22;10367;52.202;5.996;2023-03-16T07:02:57;4.70;99.90
20416;DHT22;10367;52.202;5.996;2023-03-16T07:06:00;4.70;99.90
20416;DHT22;10367;52.202;5.996;2023-03-16T07:08:36;4.70;99.90
20416;DHT22;10367;52.202;5.996;2023-03-16T07:11:30;4.80;99.90
20416;DHT22;10367;52.202;5.996;2023-03-16T07:14:10;4.80;99.90
20416;DHT22;10367;52.202;5.996;2023-03-16T07:16:46;4.90;99.90
20416;DHT22;10367;52.202;5.996;2023-03-16T07:22:03;5.00;99.90
20416;DHT22;10367;52.202;5.996;2023-03-16T07:24:36;4.90;99.90
20416;DHT22;10367;52.202;5.996;2023-03-16T07:27:06;5.00;99.90
20416;DHT22;10367;52.202;5.996;2023-03-16T07:29:43;5.00;99.90
20416;DHT22;10367;52.202;5.996;2023-03-16T07:32:22;5.00;99.90
20416;DHT22;10367;52.202;5.996;2023-03-16T07:34:58;5.10;99.90
20416;DHT22;10367;52.202;5.996;2023-03-16T07:37:30;5.30;99.90
20416;DHT22;10367;52.202;5.996;2023-03-16T07:40:13;5.40;99.90
20416;DHT22;10367;52.202;5.996;2023-03-16T07:42:48;5.50;99.90
20416;DHT22;10367;52.202;5.996;2023-03-16T07:45:24;5.60;99.90
20416;DHT22;10367;52.202;5.996;2023-03-16T07:48:01;5.60;99.90
20416;DHT22;10367;52.202;5.996;2023-03-16T07:50:36;5.60;99.90
20416;DHT22;10367;52.202;5.996;2023-03-16T07:53:09;5.60;99.90
20416;DHT22;10367;52.202;5.996;2023-03-16T07:55:39;5.70;99.90
20416;DHT22;10367;52.202;5.996;2023-03-16T07:58:19;5.70;99.90
20416;DHT22;10367;52.202;5.996;2023-03-16T08:01:03;5.70;99.90
20416;DHT22;10367;52.202;5.996;2023-03-16T08:03:44;5.60;99.90
20416;DHT22;10367;52.202;5.996;2023-03-16T08:06:23;5.70;99.90
20416;DHT22;10367;52.202;5.996;2023-03-16T08:08:57;5.60;99.90
20416;DHT22;10367;52.202;5.996;2023-03-16T08:11:29;5.60;99.90
20416;DHT22;10367;52.202;5.996;2023-03-16T08:14:02;5.60;99.90
20416;DHT22;10367;52.202;5.996;2023-03-16T08:16:45;5.50;99.90
20416;DHT22;10367;52.202;5.996;2023-03-16T08:19:19;5.50;99.90
20416;DHT22;10367;52.202;5.996;2023-03-16T08:21:51;5.50;99.90
20416;DHT22;10367;52.202;5.996;2023-03-16T08:24:43;5.50;99.90
20416;DHT22;10367;52.202;5.996;2023-03-16T08:27:12;5.60;99.90
20416;DHT22;10367;52.202;5.996;2023-03-16T08:29:50;5.50;99.90
20416;DHT22;10367;52.202;5.996;2023-03-16T08:32:23;5.60;99.90
20416;DHT22;10367;52.202;5.996;2023-03-16T08:34:56;5.60;99.90
20416;DHT22;10367;52.202;5.996;2023-03-16T08:37:32;5.60;99.90
20416;DHT22;10367;52.202;5.996;2023-03-16T08:40:04;5.70;99.90
20416;DHT22;10367;52.202;5.996;2023-03-16T08:42:45;5.70;99.90
20416;DHT22;10367;52.202;5.996;2023-03-16T08:45:30;5.70;99.90
20416;DHT22;10367;52.202;5.996;2023-03-16T08:48:19;5.80;99.90
20416;DHT22;10367;52.202;5.996;2023-03-16T08:50:51;5.90;99.90
20416;DHT22;10367;52.202;5.996;2023-03-16T08:53:25;6.00;99.90
20416;DHT22;10367;52.202;5.996;2023-03-16T08:56:09;6.10;99.90
20416;DHT22;10367;52.202;5.996;2023-03-16T08:58:48;6.20;99.90
20416;DHT22;10367;52.202;5.996;2023-03-16T09:01:22;6.40;99.90
20416;DHT22;10367;52.202;5.996;2023-03-16T09:04:05;6.50;99.90
20416;DHT22;10367;52.202;5.996;2023-03-16T09:06:44;6.50;99.90
20416;DHT22;10367;52.202;5.996;2023-03-16T09:09:28;6.50;99.90
20416;DHT22;10367;52.202;5.996;2023-03-16T09:11:58;6.50;99.90
20416;DHT22;10367;52.202;5.996;2023-03-16T09:14:31;6.50;99.90
20416;DHT22;10367;52.202;5.996;2023-03-16T09:17:05;6.50;99.90
20416;DHT22;10367;52.202;5.996;2023-03-16T09:19:46;6.60;99.90
20416;DHT22;10367;52.202;5.996;2023-03-16T09:22:47;6.60;99.90
20416;DHT22;10367;52.202;5.996;2023-03-16T09:25:19;6.70;99.90
20416;DHT22;10367;52.202;5.996;2023-03-16T09:27:56;6.80;99.90
20416;DHT22;10367;52.202;5.996;2023-03-16T09:30:30;6.90;99.90
20416;DHT22;10367;52.202;5.996;2023-03-16T09:33:15;7.00;99.90
20416;DHT22;10367;52.202;5.996;2023-03-16T09:35:54;7.10;99.90
20416;DHT22;10367;52.202;5.996;2023-03-16T09:38:26;7.10;99.90
20416;DHT22;10367;52.202;5.996;2023-03-16T09:41:22;7.20;99.90
20416;DHT22;10367;52.202;5.996;2023-03-16T09:44:10;7.10;99.90
20416;DHT22;10367;52.202;5.996;2023-03-16T09:47:00;7.20;99.90
20416;DHT22;10367;52.202;5.996;2023-03-16T09:49:44;7.10;99.90
20416;DHT22;10367;52.202;5.996;2023-03-16T09:52:27;7.10;99.90
20416;DHT22;10367;52.202;5.996;2023-03-16T09:55:15;7.20;99.90
20416;DHT22;10367;52.202;5.996;2023-03-16T09:58:00;7.40;99.90
20416;DHT22;10367;52.202;5.996;2023-03-16T10:00:50;7.50;99.90
20416;DHT22;10367;52.202;5.996;2023-03-16T10:03:48;7.60;99.90
20416;DHT22;10367;52.202;5.996;2023-03-16T10:06:30;7.80;99.90
20416;DHT22;10367;52.202;5.996;2023-03-16T10:09:15;7.70;99.90
20416;DHT22;10367;52.202;5.996;2023-03-16T10:11:55;7.60;99.90
20416;DHT22;10367;52.202;5.996;2023-03-16T10:14:44;7.60;99.90
20416;DHT22;10367;52.202;5.996;2023-03-16T10:17:25;7.60;99.90
20416;DHT22;10367;52.202;5.996;2023-03-16T10:20:12;7.60;99.90
20416;DHT22;10367;52.202;5.996;2023-03-16T10:22:48;7.60;99.90
20416;DHT22;10367;52.202;5.996;2023-03-16T10:25:21;7.60;99.90
20416;DHT22;10367;52.202;5.996;2023-03-16T10:27:57;7.60;99.90
20416;DHT22;10367;52.202;5.996;2023-03-16T10:30:33;7.60;99.90
20416;DHT22;10367;52.202;5.996;2023-03-16T10:33:13;7.70;99.90
20416;DHT22;10367;52.202;5.996;2023-03-16T10:35:46;7.80;99.90
20416;DHT22;10367;52.202;5.996;2023-03-16T10:38:33;8.00;99.90
20416;DHT22;10367;52.202;5.996;2023-03-16T10:41:23;8.10;99.90
20416;DHT22;10367;52.202;5.996;2023-03-16T10:44:02;8.20;99.90
20416;DHT22;10367;52.202;5.996;2023-03-16T10:47:05;8.30;99.90
20416;DHT22;10367;52.202;5.996;2023-03-16T10:49:46;8.50;99.90
20416;DHT22;10367;52.202;5.996;2023-03-16T10:52:33;8.60;99.90
20416;DHT22;10367;52.202;5.996;2023-03-16T10:55:09;8.90;99.90
20416;DHT22;10367;52.202;5.996;2023-03-16T10:57:47;9.20;99.90
20416;DHT22;10367;52.202;5.996;2023-03-16T11:00:29;9.50;99.90
20416;DHT22;10367;52.202;5.996;2023-03-16T11:03:11;9.60;99.90
20416;DHT22;10367;52.202;5.996;2023-03-16T11:05:54;9.70;99.90
20416;DHT22;10367;52.202;5.996;2023-03-16T11:08:30;9.90;99.90
20416;DHT22;10367;52.202;5.996;2023-03-16T11:11:16;10.10;99.90
20416;DHT22;10367;52.202;5.996;2023-03-16T11:13:47;10.40;99.90
20416;DHT22;10367;52.202;5.996;2023-03-16T11:16:24;10.60;99.90
20416;DHT22;10367;52.202;5.996;2023-03-16T11:19:02;10.70;99.90
20416;DHT22;10367;52.202;5.996;2023-03-16T11:21:40;10.80;99.90
20416;DHT22;10367;52.202;5.996;2023-03-16T11:24:39;11.00;99.90
20416;DHT22;10367;52.202;5.996;2023-03-16T11:27:20;11.10;99.90
20416;DHT22;10367;52.202;5.996;2023-03-16T11:30:13;11.20;99.90
20416;DHT22;10367;52.202;5.996;2023-03-16T11:33:00;11.30;99.90
20416;DHT22;10367;52.202;5.996;2023-03-16T11:35:45;11.20;99.90
20416;DHT22;10367;52.202;5.996;2023-03-16T11:38:35;11.30;99.90
20416;DHT22;10367;52.202;5.996;2023-03-16T11:41:27;11.40;99.90
20416;DHT22;10367;52.202;5.996;2023-03-16T11:44:06;11.40;99.90
20416;DHT22;10367;52.202;5.996;2023-03-16T11:46:43;11.10;99.90
20416;DHT22;10367;52.202;5.996;2023-03-16T11:52:40;11.10;99.90
20416;DHT22;10367;52.202;5.996;2023-03-16T11:55:35;11.10;99.90
20416;DHT22;10367;52.202;5.996;2023-03-16T11:58:30;11.00;99.90
20416;DHT22;10367;52.202;5.996;2023-03-16T12:01:09;11.00;99.90
20416;DHT22;10367;52.202;5.996;2023-03-16T12:04:05;10.90;99.90
20416;DHT22;10367;52.202;5.996;2023-03-16T12:06:52;10.90;99.90
20416;DHT22;10367;52.202;5.996;2023-03-16T12:12:35;10.70;99.90
20416;DHT22;10367;52.202;5.996;2023-03-16T12:18:14;10.80;99.90
20416;DHT22;10367;52.202;5.996;2023-03-16T12:20:51;10.90;99.90
20416;DHT22;10367;52.202;5.996;2023-03-16T12:23:27;11.00;99.90
20416;DHT22;10367;52.202;5.996;2023-03-16T12:25:59;11.10;99.90
20416;DHT22;10367;52.202;5.996;2023-03-16T12:28:29;11.10;99.90
20416;DHT22;10367;52.202;5.996;2023-03-16T12:31:09;11.30;99.90
20416;DHT22;10367;52.202;5.996;2023-03-16T12:34:06;11.40;99.90
20416;DHT22;10367;52.202;5.996;2023-03-16T12:40:03;11.70;99.90
20416;DHT22;10367;52.202;5.996;2023-03-16T12:42:58;11.90;99.90
20416;DHT22;10367;52.202;5.996;2023-03-16T12:45:37;12.10;99.90
20416;DHT22;10367;52.202;5.996;2023-03-16T12:48:19;12.00;99.90
20416;DHT22;10367;52.202;5.996;2023-03-16T12:51:00;11.90;99.90
20416;DHT22;10367;52.202;5.996;2023-03-16T12:53:44;12.10;99.90
20416;DHT22;10367;52.202;5.996;2023-03-16T12:56:17;12.50;99.90
20416;DHT22;10367;52.202;5.996;2023-03-16T12:58:49;12.70;99.90
20416;DHT22;10367;52.202;5.996;2023-03-16T13:01:24;12.90;99.90
20416;DHT22;10367;52.202;5.996;2023-03-16T13:04:00;13.10;99.90
20416;DHT22;10367;52.202;5.996;2023-03-16T13:06:32;13.30;99.90
20416;DHT22;10367;52.202;5.996;2023-03-16T13:09:05;13.30;99.90
20416;DHT22;10367;52.202;5.996;2023-03-16T13:11:48;13.40;99.90
20416;DHT22;10367;52.202;5.996;2023-03-16T13:14:35;13.50;99.90
20416;DHT22;10367;52.202;5.996;2023-03-16T13:17:20;13.60;99.90
20416;DHT22;10367;52.202;5.996;2023-03-16T13:20:21;13.70;99.90
20416;DHT22;10367;52.202;5.996;2023-03-16T13:23:17;13.90;99.90
20416;DHT22;10367;52.202;5.996;2023-03-16T13:26:11;14.00;99.90
20416;DHT22;10367;52.202;5.996;2023-03-16T13:28:48;14.20;99.90
20416;DHT22;10367;52.202;5.996;2023-03-16T13:31:23;14.30;99.90
20416;DHT22;10367;52.202;5.996;2023-03-16T13:33:54;14.40;99.90
20416;DHT22;10367;52.202;5.996;2023-03-16T13:36:27;14.50;99.90
20416;DHT22;10367;52.202;5.996;2023-03-16T13:39:04;14.40;99.90
20416;DHT22;10367;52.202;5.996;2023-03-16T13:41:34;14.60;99.90
20416;DHT22;10367;52.202;5.996;2023-03-16T13:44:12;14.60;99.90
20416;DHT22;10367;52.202;5.996;2023-03-16T13:46:41;14.70;99.90
20416;DHT22;10367;52.202;5.996;2023-03-16T13:49:11;14.70;99.90
20416;DHT22;10367;52.202;5.996;2023-03-16T13:51:40;14.80;99.90
20416;DHT22;10367;52.202;5.996;2023-03-16T13:54:21;14.90;99.90
20416;DHT22;10367;52.202;5.996;2023-03-16T13:56:52;14.60;99.90
20416;DHT22;10367;52.202;5.996;2023-03-16T13:59:25;14.40;99.90
20416;DHT22;10367;52.202;5.996;2023-03-16T14:01:55;14.70;99.90
20416;DHT22;10367;52.202;5.996;2023-03-16T14:04:28;14.70;99.90
20416;DHT22;10367;52.202;5.996;2023-03-16T14:06:58;14.70;99.90
20416;DHT22;10367;52.202;5.996;2023-03-16T14:09:30;14.40;99.90
20416;DHT22;10367;52.202;5.996;2023-03-16T14:12:01;14.50;99.90
20416;DHT22;10367;52.202;5.996;2023-03-16T14:14:37;14.70;99.90
20416;DHT22;10367;52.202;5.996;2023-03-16T14:17:10;14.90;99.90
20416;DHT22;10367;52.202;5.996;2023-03-16T14:19:42;15.10;99.90
20416;DHT22;10367;52.202;5.996;2023-03-16T14:22:14;14.60;99.90
20416;DHT22;10367;52.202;5.996;2023-03-16T14:24:50;14.50;99.90
20416;DHT22;10367;52.202;5.996;2023-03-16T14:27:25;14.50;99.90
20416;DHT22;10367;52.202;5.996;2023-03-16T14:30:00;14.40;99.90
20416;DHT22;10367;52.202;5.996;2023-03-16T14:32:31;14.30;99.90
20416;DHT22;10367;52.202;5.996;2023-03-16T14:35:11;14.40;99.90
20416;DHT22;10367;52.202;5.996;2023-03-16T14:37:41;14.40;99.90
20416;DHT22;10367;52.202;5.996;2023-03-16T14:40:23;14.40;99.90
20416;DHT22;10367;52.202;5.996;2023-03-16T14:42:55;14.40;99.90
20416;DHT22;10367;52.202;5.996;2023-03-16T14:45:30;14.40;99.90
20416;DHT22;10367;52.202;5.996;2023-03-16T14:48:03;14.50;99.90
20416;DHT22;10367;52.202;5.996;2023-03-16T14:50:33;14.40;99.90
20416;DHT22;10367;52.202;5.996;2023-03-16T14:53:02;14.50;99.90
20416;DHT22;10367;52.202;5.996;2023-03-16T14:55:32;14.40;99.90
20416;DHT22;10367;52.202;5.996;2023-03-16T14:58:01;14.60;99.90
20416;DHT22;10367;52.202;5.996;2023-03-16T15:00:31;14.70;99.90
20416;DHT22;10367;52.202;5.996;2023-03-16T15:03:16;14.80;99.90
20416;DHT22;10367;52.202;5.996;2023-03-16T15:05:48;14.70;99.90
20416;DHT22;10367;52.202;5.996;2023-03-16T15:08:21;14.60;99.90
20416;DHT22;10367;52.202;5.996;2023-03-16T15:10:53;14.40;99.90
20416;DHT22;10367;52.202;5.996;2023-03-16T15:13:22;14.50;99.90
20416;DHT22;10367;52.202;5.996;2023-03-16T15:16:21;14.40;99.90
20416;DHT22;10367;52.202;5.996;2023-03-16T15:18:51;14.50;99.90
20416;DHT22;10367;52.202;5.996;2023-03-16T15:21:21;14.60;99.90
20416;DHT22;10367;52.202;5.996;2023-03-16T15:23:50;14.80;99.90
20416;DHT22;10367;52.202;5.996;2023-03-16T15:26:23;14.50;99.90
20416;DHT22;10367;52.202;5.996;2023-03-16T15:28:54;14.30;99.90
20416;DHT22;10367;52.202;5.996;2023-03-16T15:31:25;14.00;99.90
20416;DHT22;10367;52.202;5.996;2023-03-16T15:33:55;13.90;99.90
20416;DHT22;10367;52.202;5.996;2023-03-16T15:36:24;13.90;99.90
20416;DHT22;10367;52.202;5.996;2023-03-16T15:38:53;14.00;99.90
20416;DHT22;10367;52.202;5.996;2023-03-16T15:41:27;14.10;99.90
20416;DHT22;10367;52.202;5.996;2023-03-16T15:44:15;14.30;99.90
20416;DHT22;10367;52.202;5.996;2023-03-16T15:46:48;14.50;99.90
20416;DHT22;10367;52.202;5.996;2023-03-16T15:49:18;14.30;99.90
20416;DHT22;10367;52.202;5.996;2023-03-16T15:51:48;14.40;99.90
20416;DHT22;10367;52.202;5.996;2023-03-16T15:54:17;14.30;99.90
20416;DHT22;10367;52.202;5.996;2023-03-16T15:56:46;14.50;99.90
20416;DHT22;10367;52.202;5.996;2023-03-16T15:59:21;14.50;99.90
20416;DHT22;10367;52.202;5.996;2023-03-16T16:01:52;14.50;99.90
20416;DHT22;10367;52.202;5.996;2023-03-16T16:04:24;14.40;99.90
20416;DHT22;10367;52.202;5.996;2023-03-16T16:06:55;14.30;99.90
20416;DHT22;10367;52.202;5.996;2023-03-16T16:09:31;14.20;99.90
20416;DHT22;10367;52.202;5.996;2023-03-16T16:12:10;13.90;99.90
20416;DHT22;10367;52.202;5.996;2023-03-16T16:14:47;13.60;99.90
20416;DHT22;10367;52.202;5.996;2023-03-16T16:17:20;13.50;99.90
20416;DHT22;10367;52.202;5.996;2023-03-16T16:20:19;13.50;99.90
20416;DHT22;10367;52.202;5.996;2023-03-16T16:22:49;13.50;99.90
20416;DHT22;10367;52.202;5.996;2023-03-16T16:25:22;13.30;99.90
20416;DHT22;10367;52.202;5.996;2023-03-16T16:27:54;13.40;99.90
20416;DHT22;10367;52.202;5.996;2023-03-16T16:30:24;13.50;99.90
20416;DHT22;10367;52.202;5.996;2023-03-16T16:32:59;13.60;99.90
20416;DHT22;10367;52.202;5.996;2023-03-16T16:35:29;13.70;99.90
20416;DHT22;10367;52.202;5.996;2023-03-16T16:37:58;13.70;99.90
20416;DHT22;10367;52.202;5.996;2023-03-16T16:40:36;13.70;99.90
20416;DHT22;10367;52.202;5.996;2023-03-16T16:43:24;13.50;99.90
20416;DHT22;10367;52.202;5.996;2023-03-16T16:45:54;13.40;99.90
20416;DHT22;10367;52.202;5.996;2023-03-16T16:48:31;13.20;99.90
20416;DHT22;10367;52.202;5.996;2023-03-16T16:51:05;13.10;99.90
20416;DHT22;10367;52.202;5.996;2023-03-16T16:53:39;13.00;99.90
20416;DHT22;10367;52.202;5.996;2023-03-16T16:56:15;12.90;99.90
20416;DHT22;10367;52.202;5.996;2023-03-16T16:58:45;12.80;99.90
20416;DHT22;10367;52.202;5.996;2023-03-16T17:01:18;12.70;99.90
20416;DHT22;10367;52.202;5.996;2023-03-16T17:03:49;12.60;99.90
20416;DHT22;10367;52.202;5.996;2023-03-16T17:06:19;12.50;99.90
20416;DHT22;10367;52.202;5.996;2023-03-16T17:08:49;12.40;99.90
20416;DHT22;10367;52.202;5.996;2023-03-16T17:11:22;12.30;99.90
20416;DHT22;10367;52.202;5.996;2023-03-16T17:13:52;12.20;99.90